createdAt,value
2022-10-21T00:02:02.000Z,28.7
2022-10-21T00:05:35.000Z,28.7
2022-10-21T00:09:07.000Z,33.2
2022-10-21T00:12:40.000Z,28.4
2022-10-21T00:16:13.000Z,33.5
2022-10-21T00:19:45.000Z,33.1
2022-10-21T00:23:18.000Z,31.9
2022-10-21T00:26:51.000Z,33
2022-10-21T00:30:23.000Z,30.5
2022-10-21T00:33:56.000Z,30.9
2022-10-21T00:37:28.000Z,30.4
2022-10-21T00:40:20.000Z,29.8
2022-10-21T00:43:53.000Z,33
2022-10-21T00:47:25.000Z,32.6
2022-10-21T00:50:58.000Z,28.5
2022-10-21T00:54:30.000Z,27.3
2022-10-21T00:58:03.000Z,25.7
2022-10-21T01:01:36.000Z,28.1
2022-10-21T01:05:09.000Z,26.3
2022-10-21T01:08:41.000Z,26.4
2022-10-21T01:12:14.000Z,26.7
2022-10-21T01:15:47.000Z,27.8
2022-10-21T01:18:38.000Z,26.3
2022-10-21T01:22:10.000Z,26
2022-10-21T01:25:43.000Z,27.2
2022-10-21T01:29:15.000Z,28.1
2022-10-21T01:32:48.000Z,25.6
2022-10-21T01:36:21.000Z,32.2
2022-10-21T01:39:53.000Z,32
2022-10-21T01:43:26.000Z,30.8
2022-10-21T01:46:59.000Z,28
2022-10-21T01:50:31.000Z,29.6
2022-10-21T01:54:04.000Z,34.9
2022-10-21T01:56:55.000Z,32.5
2022-10-21T02:00:27.000Z,31
2022-10-21T02:04:00.000Z,28.5
2022-10-21T02:07:33.000Z,28.2
2022-10-21T02:11:05.000Z,25.9
2022-10-21T02:14:39.000Z,32
2022-10-21T02:18:12.000Z,27.1
2022-10-21T02:21:44.000Z,30.9
2022-10-21T02:25:17.000Z,29.4
2022-10-21T02:28:49.000Z,26.5
2022-10-21T02:32:22.000Z,27.9
2022-10-21T02:35:13.000Z,28.2
2022-10-21T02:38:45.000Z,33.1
2022-10-21T02:42:18.000Z,25.5
2022-10-21T02:45:51.000Z,32.5
2022-10-21T02:49:23.000Z,30.6
2022-10-21T02:52:56.000Z,29.9
2022-10-21T02:56:28.000Z,31.1
2022-10-21T03:00:01.000Z,33.7
2022-10-21T03:03:34.000Z,30.8
2022-10-21T03:07:06.000Z,23.9
2022-10-21T03:10:39.000Z,29.4
2022-10-21T03:13:35.000Z,31.2
2022-10-21T03:17:08.000Z,32.1
2022-10-21T03:20:41.000Z,31.7
2022-10-21T03:24:13.000Z,27.9
2022-10-21T03:27:54.000Z,27.5
2022-10-21T03:31:26.000Z,28.6
2022-10-21T03:34:59.000Z,29.7
2022-10-21T03:38:31.000Z,33.2
2022-10-21T03:42:10.000Z,36
2022-10-21T03:45:42.000Z,29.2
2022-10-21T03:49:15.000Z,29.5
2022-10-21T03:52:06.000Z,26.4
2022-10-21T03:55:42.000Z,33.9
2022-10-21T03:59:21.000Z,31.5
2022-10-21T04:02:54.000Z,25.6
2022-10-21T04:06:26.000Z,25
2022-10-21T04:09:59.000Z,26.5
2022-10-21T04:13:32.000Z,24.4
2022-10-21T04:17:04.000Z,25.2
2022-10-21T04:20:37.000Z,24.6
2022-10-21T04:24:09.000Z,23.8
2022-10-21T04:27:42.000Z,26.2
2022-10-21T04:30:33.000Z,26
2022-10-21T04:34:06.000Z,27.6
2022-10-21T04:37:39.000Z,30.3
2022-10-21T04:41:11.000Z,26.1
2022-10-21T04:44:44.000Z,25.2
2022-10-21T04:48:17.000Z,23.7
2022-10-21T04:51:49.000Z,32.6
2022-10-21T04:55:22.000Z,31.6
2022-10-21T04:58:54.000Z,30.1
2022-10-21T05:02:27.000Z,29.9
2022-10-21T05:06:00.000Z,30.6
2022-10-21T05:08:51.000Z,36.6
2022-10-21T05:12:24.000Z,34.1
2022-10-21T05:15:57.000Z,33.5
2022-10-21T05:19:29.000Z,33.5
2022-10-21T05:23:02.000Z,33.5
2022-10-21T05:26:34.000Z,37.9
2022-10-21T05:30:07.000Z,32.1
2022-10-21T05:33:39.000Z,31.8
2022-10-21T05:37:12.000Z,33.9
2022-10-21T05:40:45.000Z,32.3
2022-10-21T05:44:17.000Z,34.1
2022-10-21T05:47:08.000Z,34.2
2022-10-21T05:50:41.000Z,38.5
2022-10-21T05:54:14.000Z,38.7
2022-10-21T05:57:46.000Z,36.9
2022-10-21T06:01:19.000Z,33.6
2022-10-21T06:04:52.000Z,35.7
2022-10-21T06:08:24.000Z,34.2
2022-10-21T06:11:57.000Z,33.6
2022-10-21T06:15:30.000Z,32.1
2022-10-21T06:19:02.000Z,37.2
2022-10-21T06:22:35.000Z,39.6
2022-10-21T06:25:26.000Z,37.6
2022-10-21T06:28:58.000Z,38.2
2022-10-21T06:32:31.000Z,36.1
2022-10-21T06:36:04.000Z,35.2
2022-10-21T06:39:37.000Z,37.7
2022-10-21T06:43:12.000Z,36.2
2022-10-21T06:46:45.000Z,38.8
2022-10-21T06:50:17.000Z,38.5
2022-10-21T06:53:50.000Z,37.1
2022-10-21T06:57:22.000Z,39
2022-10-21T07:00:55.000Z,36.4
2022-10-21T07:03:46.000Z,38.1
2022-10-21T07:07:19.000Z,38.5
2022-10-21T07:10:57.000Z,40.5
2022-10-21T07:14:30.000Z,36.3
2022-10-21T07:18:02.000Z,35.2
2022-10-21T07:21:35.000Z,34.7
2022-10-21T07:25:08.000Z,39.4
2022-10-21T07:28:40.000Z,34.5
2022-10-21T07:32:13.000Z,38.6
2022-10-21T07:35:45.000Z,36.7
2022-10-21T07:39:18.000Z,32
2022-10-21T07:42:09.000Z,33.9
2022-10-21T07:45:42.000Z,30.7
2022-10-21T07:49:15.000Z,33.1
2022-10-21T07:52:47.000Z,30.9
2022-10-21T07:56:34.000Z,32.2
2022-10-21T08:00:06.000Z,33.6
2022-10-21T08:03:39.000Z,33.1
2022-10-21T08:07:12.000Z,29.8
2022-10-21T08:10:45.000Z,30.9
2022-10-21T08:14:18.000Z,32.8
2022-10-21T08:17:50.000Z,29.5
2022-10-21T08:20:41.000Z,29.2
2022-10-21T08:24:14.000Z,29.5
2022-10-21T08:27:46.000Z,27.8
2022-10-21T08:31:19.000Z,26
2022-10-21T08:34:52.000Z,31.8
2022-10-21T08:38:24.000Z,29.5
2022-10-21T08:41:57.000Z,30.9
2022-10-21T08:45:29.000Z,27.2
2022-10-21T08:49:02.000Z,29.1
2022-10-21T08:52:35.000Z,30.4
2022-10-21T08:56:07.000Z,27.2
2022-10-21T08:59:03.000Z,27.1
2022-10-21T09:02:36.000Z,24.5
2022-10-21T09:06:08.000Z,22.5
2022-10-21T09:09:41.000Z,24.1
2022-10-21T09:13:14.000Z,23.8
2022-10-21T09:16:46.000Z,22.2
2022-10-21T09:20:19.000Z,21.9
2022-10-21T09:24:09.000Z,23.1
2022-10-21T09:27:41.000Z,28.2
2022-10-21T09:31:22.000Z,31.8
2022-10-21T09:34:55.000Z,27.3
2022-10-21T09:37:46.000Z,29.2
2022-10-21T09:41:18.000Z,26.1
2022-10-21T09:44:52.000Z,25.2
2022-10-21T09:48:24.000Z,27.9
2022-10-21T09:52:07.000Z,27.2
2022-10-21T09:55:48.000Z,26.7
2022-10-21T09:59:21.000Z,26.9
2022-10-21T10:02:58.000Z,21.1
2022-10-21T10:06:31.000Z,25.9
2022-10-21T10:10:03.000Z,24.2
2022-10-21T10:13:36.000Z,25.7
2022-10-21T10:16:27.000Z,23.1
2022-10-21T10:20:00.000Z,25.7
2022-10-21T10:23:33.000Z,23.6
2022-10-21T10:27:05.000Z,21.1
2022-10-21T10:30:38.000Z,23
2022-10-21T10:34:11.000Z,23.4
2022-10-21T10:37:43.000Z,30.2
2022-10-21T10:41:16.000Z,23.5
2022-10-21T10:44:48.000Z,22.6
2022-10-21T10:48:21.000Z,26.6
2022-10-21T10:51:54.000Z,21.7
2022-10-21T10:54:45.000Z,21
2022-10-21T10:58:17.000Z,19.6
2022-10-21T11:01:53.000Z,18.6
2022-10-21T11:05:25.000Z,15.4
2022-10-21T11:08:58.000Z,17.1
2022-10-21T11:12:31.000Z,14.1
2022-10-21T11:16:03.000Z,14.7
2022-10-21T11:19:37.000Z,13.2
2022-10-21T11:23:09.000Z,15.4
2022-10-21T11:26:42.000Z,13.8
2022-10-21T11:30:15.000Z,13.5
2022-10-21T11:33:06.000Z,10.7
2022-10-21T11:36:38.000Z,10.4
2022-10-21T11:40:11.000Z,7.7
2022-10-21T11:43:43.000Z,6.5
2022-10-21T11:47:16.000Z,4.2
2022-10-21T11:50:49.000Z,4.8
2022-10-21T11:54:21.000Z,3.9
2022-10-21T11:57:54.000Z,2.9
2022-10-21T12:01:27.000Z,4.6
2022-10-21T12:04:59.000Z,2.8
2022-10-21T12:08:32.000Z,1.9
2022-10-21T12:11:29.000Z,2
2022-10-21T12:15:01.000Z,2.9
2022-10-21T12:18:34.000Z,1.3
2022-10-21T12:22:07.000Z,2.8
2022-10-21T12:25:39.000Z,1.7
2022-10-21T12:29:12.000Z,1.5
2022-10-21T12:32:44.000Z,1.8
2022-10-21T12:36:17.000Z,1.3
2022-10-21T12:39:49.000Z,2.5
2022-10-21T12:43:22.000Z,1.9
2022-10-21T12:46:55.000Z,1.4
2022-10-21T12:49:46.000Z,1.7
2022-10-21T12:53:19.000Z,1.5
2022-10-21T12:56:51.000Z,1.8
2022-10-21T13:00:24.000Z,1.9
2022-10-21T13:03:57.000Z,1.6
2022-10-21T13:07:29.000Z,2.4
2022-10-21T13:11:02.000Z,1.7
2022-10-21T13:14:35.000Z,1.6
2022-10-21T13:18:07.000Z,1.4
2022-10-21T13:21:40.000Z,4
2022-10-21T13:25:13.000Z,3.1
2022-10-21T13:28:04.000Z,3.1
2022-10-21T13:31:37.000Z,3.4
2022-10-21T13:35:09.000Z,4
2022-10-21T13:38:42.000Z,2.9
2022-10-21T13:42:15.000Z,2.4
2022-10-21T13:45:50.000Z,7.8
2022-10-21T13:49:22.000Z,3.7
2022-10-21T13:52:55.000Z,3.3
2022-10-21T13:56:28.000Z,4.3
2022-10-21T14:00:00.000Z,4.5
2022-10-21T14:03:33.000Z,3.7
2022-10-21T14:06:24.000Z,5.8
2022-10-21T14:09:57.000Z,4.2
2022-10-21T14:13:36.000Z,4.1
2022-10-21T14:17:08.000Z,4.6
2022-10-21T14:20:41.000Z,24.8
2022-10-21T14:24:14.000Z,5.8
2022-10-21T14:27:47.000Z,4.1
2022-10-21T14:31:19.000Z,15.4
2022-10-21T14:34:52.000Z,9.9
2022-10-21T14:38:24.000Z,4.3
2022-10-21T14:41:57.000Z,3.8
2022-10-21T14:44:48.000Z,2.6
2022-10-21T14:48:21.000Z,3.3
2022-10-21T14:51:54.000Z,3
2022-10-21T14:55:26.000Z,3.3
2022-10-21T14:58:59.000Z,4.2
2022-10-21T15:02:32.000Z,5
2022-10-21T15:06:05.000Z,3
2022-10-21T15:09:37.000Z,3.8
2022-10-21T15:13:10.000Z,6.3
2022-10-21T15:16:42.000Z,9
2022-10-21T15:20:15.000Z,4.2
2022-10-21T15:23:06.000Z,4.8
2022-10-21T15:26:44.000Z,5.9
2022-10-21T15:30:16.000Z,7.7
2022-10-21T15:33:49.000Z,8.7
2022-10-21T15:37:22.000Z,5.9
2022-10-21T15:40:54.000Z,8.3
2022-10-21T15:44:27.000Z,8.3
2022-10-21T15:48:00.000Z,17.9
2022-10-21T15:51:32.000Z,9.8
2022-10-21T15:55:05.000Z,9.4
2022-10-21T15:58:37.000Z,11.1
2022-10-21T16:01:28.000Z,15.4
2022-10-21T16:05:01.000Z,17.3
2022-10-21T16:08:34.000Z,8.3
2022-10-21T16:12:06.000Z,6.8
2022-10-21T16:15:39.000Z,6.1
2022-10-21T16:19:12.000Z,4.2
2022-10-21T16:22:45.000Z,6.8
2022-10-21T16:26:17.000Z,7.6
2022-10-21T16:29:55.000Z,4.7
2022-10-21T16:33:28.000Z,7.1
2022-10-21T16:37:00.000Z,6.5
2022-10-21T16:39:51.000Z,7
2022-10-21T16:43:24.000Z,5.5
2022-10-21T16:46:57.000Z,5.6
2022-10-21T16:50:29.000Z,6.8
2022-10-21T16:54:02.000Z,6.2
2022-10-21T16:57:34.000Z,11.8
2022-10-21T17:01:07.000Z,10.5
2022-10-21T17:04:40.000Z,9.7
2022-10-21T17:08:13.000Z,11.2
2022-10-21T17:11:45.000Z,8.8
2022-10-21T17:15:18.000Z,12.8
2022-10-21T17:18:09.000Z,28.1
2022-10-21T17:21:42.000Z,28.4
2022-10-21T17:25:14.000Z,14.5
2022-10-21T17:28:47.000Z,11.8
2022-10-21T17:32:20.000Z,11.3
2022-10-21T17:35:52.000Z,12.2
2022-10-21T17:39:25.000Z,12.2
2022-10-21T17:42:58.000Z,10
2022-10-21T17:46:30.000Z,9.9
2022-10-21T17:50:03.000Z,13.5
2022-10-21T17:53:35.000Z,8.6
2022-10-21T17:56:27.000Z,9.4
2022-10-21T17:59:59.000Z,11.6
2022-10-21T18:03:32.000Z,9.9
2022-10-21T18:07:05.000Z,8.6
2022-10-21T18:10:41.000Z,10.9
2022-10-21T18:14:13.000Z,11.2
2022-10-21T18:17:46.000Z,10.5
2022-10-21T18:21:19.000Z,12.4
2022-10-21T18:24:51.000Z,12.3
2022-10-21T18:28:24.000Z,10.4
2022-10-21T18:31:57.000Z,15.1
2022-10-21T18:34:48.000Z,12.1
2022-10-21T18:38:20.000Z,13.2
2022-10-21T18:41:57.000Z,13.7
2022-10-21T18:45:30.000Z,16.1
2022-10-21T18:49:02.000Z,15.9
2022-10-21T18:52:35.000Z,15.5
2022-10-21T18:56:08.000Z,16
2022-10-21T18:59:41.000Z,16.5
2022-10-21T19:03:14.000Z,16.2
2022-10-21T19:06:47.000Z,17.4
2022-10-21T19:10:19.000Z,15.2
2022-10-21T19:13:10.000Z,17.8
2022-10-21T19:16:43.000Z,14.5
2022-10-21T19:20:16.000Z,21.7
2022-10-21T19:23:48.000Z,28.2
2022-10-21T19:27:21.000Z,16.8
2022-10-21T19:30:54.000Z,18
2022-10-21T19:34:26.000Z,15.3
2022-10-21T19:37:59.000Z,16
2022-10-21T19:41:40.000Z,13.1
2022-10-21T19:45:13.000Z,13.2
2022-10-21T19:48:45.000Z,11.5
2022-10-21T19:51:37.000Z,13.4
2022-10-21T19:55:09.000Z,14.9
2022-10-21T19:58:42.000Z,11.3
2022-10-21T20:02:14.000Z,16.9
2022-10-21T20:05:47.000Z,14.6
2022-10-21T20:09:19.000Z,14.1
2022-10-21T20:12:52.000Z,17.9
2022-10-21T20:16:25.000Z,20.9
2022-10-21T20:19:58.000Z,23
2022-10-21T20:23:30.000Z,21.7
2022-10-21T20:27:03.000Z,27.6
2022-10-21T20:29:54.000Z,23.5
2022-10-21T20:33:27.000Z,22.6
2022-10-21T20:37:00.000Z,27.9
2022-10-21T20:40:32.000Z,22
2022-10-21T20:44:05.000Z,27.4
2022-10-21T20:47:37.000Z,23.4
2022-10-21T20:51:10.000Z,20.7
2022-10-21T20:54:43.000Z,24.2
2022-10-21T20:58:15.000Z,23.9
2022-10-21T21:01:48.000Z,28.6
2022-10-21T21:05:21.000Z,27.6
2022-10-21T21:08:12.000Z,24.2
2022-10-21T21:12:01.000Z,29.6
2022-10-21T21:15:34.000Z,26.9
2022-10-21T21:19:06.000Z,27.2
2022-10-21T21:22:39.000Z,23.2
2022-10-21T21:26:12.000Z,23.1
2022-10-21T21:29:44.000Z,20.3
2022-10-21T21:33:17.000Z,26.7
2022-10-21T21:36:50.000Z,22.6
2022-10-21T21:40:22.000Z,22.7
2022-10-21T21:43:55.000Z,25.9
2022-10-21T21:46:46.000Z,22.1
2022-10-21T21:50:18.000Z,27.5
2022-10-21T21:53:51.000Z,25.4
2022-10-21T21:57:23.000Z,22.1
2022-10-21T22:00:56.000Z,22.3
2022-10-21T22:04:29.000Z,18.9
2022-10-21T22:08:02.000Z,19.3
2022-10-21T22:11:35.000Z,16.1
2022-10-21T22:15:07.000Z,15.5
2022-10-21T22:19:12.000Z,15.9
2022-10-21T22:22:45.000Z,22.4
2022-10-21T22:25:35.000Z,17.1
2022-10-21T22:29:08.000Z,15.4
2022-10-21T22:32:41.000Z,13.8
2022-10-21T22:36:13.000Z,17.7
2022-10-21T22:39:46.000Z,23
2022-10-21T22:43:19.000Z,18
2022-10-21T22:46:51.000Z,21.1
2022-10-21T22:50:24.000Z,19.6
2022-10-21T22:53:57.000Z,22.3
2022-10-21T22:57:37.000Z,21.2
2022-10-21T23:01:10.000Z,19.5
2022-10-21T23:04:01.000Z,25.8
2022-10-21T23:07:34.000Z,23.1
2022-10-21T23:11:07.000Z,21.1
2022-10-21T23:14:40.000Z,25.9
2022-10-21T23:18:12.000Z,21.8
2022-10-21T23:21:45.000Z,20
2022-10-21T23:25:18.000Z,16
2022-10-21T23:28:50.000Z,21.4
2022-10-21T23:32:23.000Z,17.6
2022-10-21T23:35:56.000Z,20.5
2022-10-21T23:39:28.000Z,18.9
2022-10-21T23:42:19.000Z,15
2022-10-21T23:45:52.000Z,14.4
2022-10-21T23:49:25.000Z,18.6
2022-10-21T23:52:57.000Z,17.2
2022-10-21T23:56:30.000Z,16.5
